Terminal Aerodrome Forecast
Issued by NWS Central Illinois

Home | Current Version | Previous Version | Text Only | Print | Product List | Glossary On
Versions: 1 2 3 4 5 6 7 8 9 10 11 12 13 14 15 16
201
FTUS43 KILX 062329
TAFPIA
TAF
KPIA 062329Z 0700/0724 21007KT P6SM SCT250
     FM070800 22010KT P6SM BKN120
     FM071400 26012G22KT P6SM SCT040 BKN100=

USA.gov is the U.S. government's official web portal to all federal, state and local government web resources and services.